createdAt,value
2018-05-08T00:00:15.079Z,1.17
2018-05-08T00:03:18.336Z,1.10
2018-05-08T00:06:21.619Z,1.17
2018-05-08T00:09:25.641Z,1.20
2018-05-08T00:12:28.932Z,0.97
2018-05-08T00:15:32.194Z,1.20
2018-05-08T00:18:35.558Z,0.93
2018-05-08T00:21:38.810Z,1.00
2018-05-08T00:24:42.844Z,1.80
2018-05-08T00:27:46.107Z,1.62
2018-05-08T00:30:49.368Z,1.40
2018-05-08T00:33:52.641Z,1.50
2018-05-08T00:36:55.922Z,1.40
2018-05-08T00:40:00.050Z,1.50
2018-05-08T00:43:04.075Z,1.30
2018-05-08T00:46:07.320Z,1.40
2018-05-08T00:49:10.585Z,1.37
2018-05-08T00:52:13.841Z,1.63
2018-05-08T00:55:18.342Z,1.40
2018-05-08T00:58:21.681Z,1.20
2018-05-08T01:01:25.733Z,1.13
2018-05-08T01:04:28.988Z,1.30
2018-05-08T01:07:33.036Z,1.10
2018-05-08T01:10:36.482Z,1.40
2018-05-08T01:13:39.744Z,1.30
2018-05-08T01:16:43.020Z,1.75
2018-05-08T01:19:46.289Z,1.30
2018-05-08T01:22:50.311Z,1.70
2018-05-08T01:25:54.322Z,1.30
2018-05-08T01:28:58.347Z,1.47
2018-05-08T01:32:01.614Z,1.20
2018-05-08T01:35:05.638Z,1.20
2018-05-08T01:38:09.675Z,1.27
2018-05-08T01:41:12.927Z,1.53
2018-05-08T01:44:16.183Z,1.57
2018-05-08T01:47:19.451Z,1.50
2018-05-08T01:50:23.473Z,1.50
2018-05-08T01:53:28.007Z,1.30
2018-05-08T01:56:31.296Z,1.47
2018-05-08T01:59:35.428Z,1.37
2018-05-08T02:02:38.690Z,1.33
2018-05-08T02:05:42.683Z,1.00
2018-05-08T02:08:45.940Z,1.70
2018-05-08T02:11:49.217Z,1.50
2018-05-08T02:14:53.312Z,1.40
2018-05-08T02:17:56.637Z,1.53
2018-05-08T02:21:00.641Z,1.67
2018-05-08T02:24:04.696Z,1.57
2018-05-08T02:27:07.961Z,1.37
2018-05-08T02:30:12.010Z,1.60
2018-05-08T02:33:15.505Z,1.58
2018-05-08T02:36:18.746Z,1.40
2018-05-08T02:39:22.073Z,1.30
2018-05-08T02:42:26.079Z,1.70
2018-05-08T02:45:30.101Z,1.50
2018-05-08T02:48:34.218Z,1.40
2018-05-08T02:51:38.227Z,1.33
2018-05-08T02:54:42.251Z,1.50
2018-05-08T02:57:46.267Z,1.83
2018-05-08T03:00:49.574Z,1.23
2018-05-08T03:03:52.834Z,1.70
2018-05-08T03:06:56.088Z,1.55
2018-05-08T03:09:59.362Z,1.40
2018-05-08T03:13:02.617Z,1.60
2018-05-08T03:16:05.859Z,1.83
2018-05-08T03:19:09.293Z,2.00
2018-05-08T03:22:12.602Z,1.80
2018-05-08T03:25:15.829Z,2.17
2018-05-08T03:28:19.902Z,2.40
2018-05-08T03:31:23.150Z,1.80
2018-05-08T03:34:27.188Z,2.10
2018-05-08T03:37:30.490Z,1.90
2018-05-08T03:40:33.746Z,1.77
2018-05-08T03:43:37.829Z,1.80
2018-05-08T03:46:41.077Z,1.90
2018-05-08T03:49:45.107Z,1.70
2018-05-08T03:52:48.369Z,2.03
2018-05-08T03:55:51.617Z,1.77
2018-05-08T03:58:55.133Z,1.90
2018-05-08T04:02:17.046Z,2.30
2018-05-08T04:05:38.432Z,1.77
2018-05-08T04:08:41.681Z,1.60
2018-05-08T04:11:44.963Z,1.80
2018-05-08T04:14:48.934Z,2.10
2018-05-08T04:17:52.269Z,1.98
2018-05-08T04:20:56.539Z,1.90
2018-05-08T04:24:05.625Z,1.93
2018-05-08T04:27:10.462Z,2.10
2018-05-08T04:30:14.506Z,1.80
2018-05-08T04:33:18.248Z,1.97
2018-05-08T04:36:23.297Z,1.80
2018-05-08T04:39:26.593Z,1.70
2018-05-08T04:42:29.941Z,1.70
2018-05-08T04:45:33.966Z,2.30
2018-05-08T04:48:37.246Z,2.40
2018-05-08T04:51:41.266Z,2.30
2018-05-08T04:54:45.332Z,1.77
2018-05-08T04:57:48.582Z,2.00
2018-05-08T05:00:51.884Z,1.77
2018-05-08T05:03:55.902Z,2.33
2018-05-08T05:07:00.011Z,2.40
2018-05-08T05:10:03.264Z,2.47
2018-05-08T05:13:06.530Z,2.00
2018-05-08T05:16:10.549Z,2.23
2018-05-08T05:19:13.845Z,2.37
2018-05-08T05:22:17.130Z,2.40
2018-05-08T05:25:20.388Z,2.37
2018-05-08T05:28:23.756Z,2.10
2018-05-08T05:31:26.933Z,1.80
2018-05-08T05:34:30.202Z,2.40
2018-05-08T05:37:34.288Z,2.00
2018-05-08T05:40:37.538Z,1.97
2018-05-08T05:43:41.581Z,1.87
2018-05-08T05:46:45.603Z,1.93
2018-05-08T05:49:49.804Z,2.00
2018-05-08T05:52:53.137Z,1.90
2018-05-08T05:55:57.152Z,2.20
2018-05-08T05:59:01.178Z,1.77
2018-05-08T06:02:04.527Z,1.80
2018-05-08T06:05:07.791Z,1.57
2018-05-08T06:08:11.050Z,1.80
2018-05-08T06:11:15.194Z,1.63
2018-05-08T06:14:18.454Z,1.83
2018-05-08T06:17:21.710Z,1.60
2018-05-08T06:20:24.997Z,1.63
2018-05-08T06:23:28.855Z,1.55
2018-05-08T06:26:32.130Z,1.47
2018-05-08T06:29:36.137Z,1.80
2018-05-08T06:32:40.109Z,1.83
2018-05-08T06:35:43.521Z,1.30
2018-05-08T06:38:46.833Z,2.07
2018-05-08T06:41:50.129Z,1.70
2018-05-08T06:44:53.413Z,1.50
2018-05-08T06:47:56.664Z,1.33
2018-05-08T06:50:59.969Z,1.77
2018-05-08T06:54:04.083Z,1.57
2018-05-08T06:57:08.209Z,1.60
2018-05-08T07:00:12.235Z,1.97
2018-05-08T07:03:16.251Z,1.30
2018-05-08T07:06:20.274Z,1.60
2018-05-08T07:09:24.421Z,1.67
2018-05-08T07:12:27.691Z,1.37
2018-05-08T07:15:31.724Z,1.40
2018-05-08T07:18:35.762Z,1.43
2018-05-08T07:21:39.030Z,1.60
2018-05-08T07:24:43.046Z,1.73
2018-05-08T07:27:47.070Z,1.62
2018-05-08T07:30:51.085Z,1.67
2018-05-08T07:33:55.316Z,2.00
2018-05-08T07:36:59.365Z,1.73
2018-05-08T07:40:02.624Z,1.93
2018-05-08T07:43:06.650Z,2.17
2018-05-08T07:46:10.678Z,1.52
2018-05-08T07:49:13.934Z,1.80
2018-05-08T07:52:17.984Z,2.15
2018-05-08T07:55:22.007Z,1.93
2018-05-08T07:58:26.033Z,2.27
2018-05-08T08:01:30.051Z,2.03
2018-05-08T08:04:34.074Z,1.60
2018-05-08T08:10:56.534Z,1.90
2018-05-08T08:14:00.560Z,1.83
2018-05-08T08:17:04.593Z,1.87
2018-05-08T08:20:07.850Z,1.60
2018-05-08T08:23:11.116Z,1.83
2018-05-08T08:26:14.372Z,2.03
2018-05-08T08:29:18.396Z,1.73
2018-05-08T08:32:22.513Z,2.00
2018-05-08T08:35:26.526Z,2.00
2018-05-08T08:38:29.798Z,1.60
2018-05-08T08:41:33.050Z,1.77
2018-05-08T08:44:36.369Z,1.53
2018-05-08T08:47:39.735Z,1.80
2018-05-08T08:50:42.933Z,2.10
2018-05-08T08:53:46.190Z,1.70
2018-05-08T08:56:49.458Z,1.80
2018-05-08T08:59:53.474Z,1.77
2018-05-08T09:02:57.517Z,1.43
2018-05-08T09:06:00.771Z,1.30
2018-05-08T09:09:04.086Z,1.47
2018-05-08T09:12:08.113Z,1.53
2018-05-08T09:15:12.139Z,1.30
2018-05-08T09:18:15.465Z,1.60
2018-05-08T09:21:18.734Z,1.10
2018-05-08T09:24:22.024Z,1.60
2018-05-08T09:27:26.125Z,1.13
2018-05-08T09:30:29.300Z,1.00
2018-05-08T09:33:33.834Z,1.30
2018-05-08T09:36:37.090Z,1.00
2018-05-08T09:39:40.353Z,1.23
2018-05-08T09:42:43.677Z,0.97
2018-05-08T09:45:46.925Z,1.40
2018-05-08T09:48:50.225Z,1.10
2018-05-08T09:51:53.495Z,1.30
2018-05-08T09:54:56.766Z,1.20
2018-05-08T09:58:00.798Z,1.20
2018-05-08T10:01:06.144Z,1.13
2018-05-08T10:04:09.526Z,1.40
2018-05-08T10:07:14.494Z,1.47
2018-05-08T10:10:17.758Z,1.00
2018-05-08T10:13:21.141Z,1.17
2018-05-08T10:16:24.416Z,1.40
2018-05-08T10:19:27.707Z,1.20
2018-05-08T10:22:31.703Z,1.47
2018-05-08T10:25:35.717Z,1.57
2018-05-08T10:28:39.763Z,1.40
2018-05-08T10:31:43.022Z,1.20
2018-05-08T10:34:46.272Z,1.17
2018-05-08T10:37:49.649Z,1.00
2018-05-08T10:40:53.666Z,1.30
2018-05-08T10:43:57.726Z,1.10
2018-05-08T10:47:01.099Z,1.10
2018-05-08T10:50:05.135Z,1.17
2018-05-08T10:53:08.402Z,1.60
2018-05-08T10:56:11.653Z,1.30
2018-05-08T10:59:14.929Z,1.10
2018-05-08T11:02:18.958Z,1.13
2018-05-08T11:05:22.213Z,0.97
2018-05-08T11:08:25.478Z,1.07
2018-05-08T11:11:28.757Z,1.03
2018-05-08T11:14:32.026Z,1.20
2018-05-08T11:17:35.324Z,0.90
2018-05-08T11:20:38.573Z,0.90
2018-05-08T11:23:41.845Z,1.10
2018-05-08T11:26:45.901Z,0.87
2018-05-08T11:29:49.953Z,0.90
2018-05-08T11:32:54.282Z,1.00
2018-05-08T11:35:57.595Z,1.33
2018-05-08T11:39:00.932Z,0.77
2018-05-08T11:42:04.182Z,1.00
2018-05-08T11:45:07.457Z,0.60
2018-05-08T11:48:10.725Z,0.80
2018-05-08T11:51:14.739Z,0.80
2018-05-08T11:54:18.767Z,0.70
2018-05-08T11:57:22.021Z,0.80
2018-05-08T12:00:25.284Z,0.70
2018-05-08T12:03:28.549Z,0.70
2018-05-08T12:06:31.805Z,0.87
2018-05-08T12:09:35.092Z,1.10
2018-05-08T12:12:39.634Z,0.95
2018-05-08T12:15:42.878Z,0.80
2018-05-08T12:18:46.140Z,1.00
2018-05-08T12:21:49.459Z,0.70
2018-05-08T12:24:54.241Z,0.90
2018-05-08T12:27:58.258Z,0.73
2018-05-08T12:31:02.302Z,0.93
2018-05-08T12:34:05.599Z,0.97
2018-05-08T12:37:08.857Z,0.73
2018-05-08T12:40:12.114Z,0.93
2018-05-08T12:43:15.366Z,0.70
2018-05-08T12:46:19.412Z,0.87
2018-05-08T12:49:23.430Z,1.10
2018-05-08T12:52:28.248Z,0.93
2018-05-08T12:55:31.574Z,1.10
2018-05-08T12:58:34.984Z,1.17
2018-05-08T13:01:40.421Z,0.80
2018-05-08T13:04:44.227Z,0.90
2018-05-08T13:07:47.943Z,1.00
2018-05-08T13:10:51.220Z,1.20
2018-05-08T13:13:54.477Z,1.00
2018-05-08T13:16:58.197Z,1.67
2018-05-08T13:20:01.449Z,1.00
2018-05-08T13:23:04.741Z,0.63
2018-05-08T13:26:11.874Z,0.90
2018-05-08T13:29:15.981Z,0.97
2018-05-08T13:32:19.335Z,1.10
2018-05-08T13:35:22.654Z,0.90
2018-05-08T13:38:25.906Z,0.90
2018-05-08T13:41:29.938Z,1.10
2018-05-08T13:44:33.189Z,0.97
2018-05-08T13:47:36.527Z,1.40
2018-05-08T13:50:40.574Z,1.00
2018-05-08T13:53:43.821Z,0.90
2018-05-08T13:56:47.301Z,1.20
2018-05-08T13:59:50.604Z,1.10
2018-05-08T14:02:53.861Z,0.90
2018-05-08T14:05:57.134Z,1.10
2018-05-08T14:09:01.174Z,1.25
2018-05-08T14:12:04.573Z,0.90
2018-05-08T14:15:08.601Z,1.10
2018-05-08T14:18:11.874Z,0.80
2018-05-08T14:21:15.131Z,1.00
2018-05-08T14:24:18.387Z,1.03
2018-05-08T14:27:21.667Z,1.00
2018-05-08T14:30:24.968Z,0.80
2018-05-08T14:33:29.181Z,0.90
2018-05-08T14:36:33.201Z,1.10
2018-05-08T14:39:37.239Z,1.53
2018-05-08T14:42:41.564Z,0.93
2018-05-08T14:45:47.496Z,1.00
2018-05-08T14:48:50.742Z,0.80
2018-05-08T14:51:54.011Z,1.07
2018-05-08T14:54:57.293Z,0.77
2018-05-08T14:58:00.642Z,0.90
2018-05-08T15:01:05.910Z,1.00
2018-05-08T15:04:09.158Z,0.90
2018-05-08T15:07:12.418Z,1.13
2018-05-08T15:10:15.756Z,1.30
2018-05-08T15:13:19.922Z,0.90
2018-05-08T15:16:24.996Z,1.00
2018-05-08T15:19:28.625Z,1.00
2018-05-08T15:22:32.035Z,0.90
2018-05-08T15:25:35.314Z,1.00
2018-05-08T15:28:38.581Z,1.10
2018-05-08T15:31:41.941Z,1.20
2018-05-08T15:34:45.496Z,1.27
2018-05-08T15:37:49.562Z,1.00
2018-05-08T15:40:52.901Z,1.00
2018-05-08T15:43:56.292Z,1.17
2018-05-08T15:46:59.488Z,1.10
2018-05-08T15:50:03.516Z,1.10
2018-05-08T15:53:07.542Z,1.20
2018-05-08T15:56:10.818Z,1.10
2018-05-08T15:59:14.139Z,1.07
2018-05-08T16:02:18.222Z,1.23
2018-05-08T16:05:21.457Z,1.00
2018-05-08T16:08:24.759Z,1.30
2018-05-08T16:11:29.168Z,1.20
2018-05-08T16:14:33.190Z,1.00
2018-05-08T16:17:37.226Z,1.20
2018-05-08T16:20:40.490Z,1.30
2018-05-08T16:23:45.314Z,1.13
2018-05-08T16:26:48.581Z,1.27
2018-05-08T16:29:51.897Z,1.07
2018-05-08T16:32:55.148Z,1.40
2018-05-08T16:35:59.169Z,1.07
2018-05-08T16:39:02.852Z,1.00
2018-05-08T16:42:06.115Z,1.17
2018-05-08T16:45:11.109Z,1.27
2018-05-08T16:48:15.225Z,1.23
2018-05-08T16:51:18.482Z,1.40
2018-05-08T16:54:21.748Z,1.40
2018-05-08T16:57:25.773Z,1.37
2018-05-08T17:00:29.022Z,1.70
2018-05-08T17:03:32.937Z,1.50
2018-05-08T17:06:36.331Z,1.30
2018-05-08T17:09:39.690Z,1.93
2018-05-08T17:12:42.984Z,1.50
2018-05-08T17:15:54.057Z,1.30
2018-05-08T17:18:58.080Z,1.40
2018-05-08T17:22:02.234Z,1.47
2018-05-08T17:25:05.484Z,2.10
2018-05-08T17:28:09.535Z,2.30
2018-05-08T17:31:13.582Z,2.40
2018-05-08T17:34:16.834Z,2.20
2018-05-08T17:37:20.873Z,2.03
2018-05-08T17:40:24.148Z,2.03
2018-05-08T17:43:27.393Z,2.30
2018-05-08T17:46:30.694Z,2.43
2018-05-08T17:49:33.956Z,1.83
2018-05-08T17:52:37.262Z,1.97
2018-05-08T17:55:41.312Z,2.10
2018-05-08T17:58:44.585Z,1.83
2018-05-08T18:01:48.599Z,2.60
2018-05-08T18:04:52.637Z,2.70
2018-05-08T18:07:55.898Z,2.20
2018-05-08T18:10:59.253Z,2.27
2018-05-08T18:14:02.526Z,2.00
2018-05-08T18:17:06.617Z,2.20
2018-05-08T18:20:09.944Z,2.30
2018-05-08T18:23:13.247Z,2.13
2018-05-08T18:26:17.777Z,2.13
2018-05-08T18:29:21.802Z,2.03
2018-05-08T18:32:25.998Z,3.00
2018-05-08T18:35:29.341Z,2.23
2018-05-08T18:38:32.631Z,2.33
2018-05-08T18:41:35.917Z,2.50
2018-05-08T18:44:39.304Z,2.17
2018-05-08T18:47:43.339Z,2.33
2018-05-08T18:50:46.633Z,2.33
2018-05-08T18:53:50.653Z,2.40
2018-05-08T18:56:54.690Z,2.43
2018-05-08T19:00:03.456Z,2.03
2018-05-08T19:03:06.858Z,2.50
2018-05-08T19:06:10.322Z,2.33
2018-05-08T19:09:13.780Z,2.40
2018-05-08T19:12:17.142Z,2.03
2018-05-08T19:15:26.671Z,2.13
2018-05-08T19:18:36.121Z,2.43
2018-05-08T19:21:40.479Z,2.53
2018-05-08T19:24:43.985Z,2.63
2018-05-08T19:27:48.321Z,2.17
2018-05-08T19:30:52.348Z,2.07
2018-05-08T19:33:55.627Z,2.47
2018-05-08T19:37:04.345Z,2.07
2018-05-08T19:40:07.686Z,2.40
2018-05-08T19:43:10.869Z,2.57
2018-05-08T19:46:16.371Z,1.93
2018-05-08T19:49:19.643Z,2.13
2018-05-08T19:52:23.673Z,2.33
2018-05-08T19:55:52.179Z,2.27
2018-05-08T19:58:56.481Z,2.27
2018-05-08T20:02:00.303Z,2.30
2018-05-08T20:05:03.570Z,2.57
2018-05-08T20:08:07.591Z,2.43
2018-05-08T20:11:10.873Z,2.47
2018-05-08T20:14:14.129Z,2.37
2018-05-08T20:17:17.402Z,2.63
2018-05-08T20:20:21.636Z,2.53
2018-05-08T20:23:24.939Z,2.87
2018-05-08T20:26:28.220Z,3.03
2018-05-08T20:29:31.534Z,3.57
2018-05-08T20:32:35.602Z,3.20
2018-05-08T20:35:39.237Z,2.83
2018-05-08T20:38:42.431Z,3.07
2018-05-08T20:41:46.449Z,2.73
2018-05-08T20:44:49.735Z,3.13
2018-05-08T20:47:53.066Z,3.17
2018-05-08T20:50:57.095Z,2.93
2018-05-08T20:54:01.123Z,3.03
2018-05-08T20:57:04.939Z,2.87
2018-05-08T21:00:08.228Z,2.77
2018-05-08T21:03:12.349Z,2.73
2018-05-08T21:06:16.371Z,2.67
2018-05-08T21:09:19.848Z,2.93
2018-05-08T21:12:23.060Z,3.07
2018-05-08T21:15:27.069Z,3.50
2018-05-08T21:18:30.362Z,3.47
2018-05-08T21:21:33.632Z,4.43
2018-05-08T21:24:36.890Z,2.93
2018-05-08T21:27:47.271Z,3.47
2018-05-08T21:30:56.186Z,3.57
2018-05-08T21:34:00.266Z,3.60
2018-05-08T21:37:03.531Z,3.40
2018-05-08T21:40:06.813Z,3.53
2018-05-08T21:43:10.876Z,3.37
2018-05-08T21:46:14.130Z,3.20
2018-05-08T21:52:27.199Z,2.97
2018-05-08T21:55:30.477Z,2.63
2018-05-08T21:58:33.739Z,3.00
2018-05-08T22:01:36.988Z,2.87
2018-05-08T22:04:40.300Z,2.80
2018-05-08T22:07:43.648Z,2.50
2018-05-08T22:10:46.925Z,2.50
2018-05-08T22:13:50.196Z,2.47
2018-05-08T22:16:53.451Z,2.65
2018-05-08T22:19:56.705Z,3.03
2018-05-08T22:23:00.124Z,3.03
2018-05-08T22:26:03.415Z,2.30
2018-05-08T22:29:06.672Z,2.90
2018-05-08T22:32:10.723Z,3.17
2018-05-08T22:35:13.983Z,2.63
2018-05-08T22:38:18.184Z,2.50
2018-05-08T22:41:21.433Z,2.97
2018-05-08T22:44:24.708Z,2.57
2018-05-08T22:47:28.007Z,2.40
2018-05-08T22:50:32.028Z,2.20
2018-05-08T22:53:36.053Z,1.97
2018-05-08T22:56:40.154Z,1.93
2018-05-08T22:59:43.367Z,2.27
2018-05-08T23:02:47.428Z,1.90
2018-05-08T23:05:50.749Z,2.00
2018-05-08T23:08:54.068Z,2.40
2018-05-08T23:11:57.289Z,2.50
2018-05-08T23:15:00.576Z,2.60
2018-05-08T23:18:04.695Z,2.33
2018-05-08T23:21:08.719Z,2.60
2018-05-08T23:24:11.987Z,1.90
2018-05-08T23:27:17.242Z,2.80
2018-05-08T23:30:21.378Z,2.13
2018-05-08T23:33:25.465Z,2.37
2018-05-08T23:36:28.798Z,2.47
2018-05-08T23:39:32.908Z,2.47
2018-05-08T23:42:36.930Z,2.67
2018-05-08T23:45:40.970Z,2.43
2018-05-08T23:48:45.162Z,2.63
2018-05-08T23:51:49.920Z,2.93
2018-05-08T23:54:53.934Z,2.77
2018-05-08T23:57:58.323Z,2.10
